Time;durP1;ratioP1;P1;durP2;ratioP2;P2;SDS_P1;SDS_P2;PMS_P1;PMS_P2;Temp;Humidity;BMP_temperature;BMP_pressure;BME280_temperature;BME280_humidity;BME280_pressure;Samples;Min_cycle;Max_cycle;Signal;HPM_P1;HPM_P2
2023/12/10 00:02:03;;;;;;;18.05;2.97;;;;;;;;;;5084618;28;20064;-79
2023/12/10 00:04:29;;;;;;;22.02;3.00;;;;;;;;;;5069044;28;20481;-79
2023/12/10 00:06:54;;;;;;;18.15;3.05;;;;;;;;;;5082575;28;20033;-80
2023/12/10 00:09:20;;;;;;;20.05;3.15;;;;;;;;;;5088198;28;20501;-79
2023/12/10 00:11:45;;;;;;;24.15;3.42;;;;;;;;;;5076254;28;20401;-79
2023/12/10 00:14:11;;;;;;;20.90;2.95;;;;;;;;;;5073184;28;20086;-79
2023/12/10 00:16:36;;;;;;;19.60;3.25;;;;;;;;;;5077403;28;20036;-79
2023/12/10 00:19:02;;;;;;;21.27;3.35;;;;;;;;;;5093576;28;20044;-79
2023/12/10 00:21:27;;;;;;;19.17;3.28;;;;;;;;;;5068532;28;20470;-79
2023/12/10 00:23:53;;;;;;;19.42;3.17;;;;;;;;;;5090538;28;20031;-79
2023/12/10 00:26:18;;;;;;;22.65;3.58;;;;;;;;;;5073282;28;20032;-79
2023/12/10 00:28:43;;;;;;;22.30;3.25;;;;;;;;;;5094504;28;20039;-79
2023/12/10 00:31:09;;;;;;;19.35;2.70;;;;;;;;;;5083221;28;20036;-79
2023/12/10 00:33:35;;;;;;;20.23;3.83;;;;;;;;;;5086799;28;20035;-79
2023/12/10 00:36:00;;;;;;;22.15;2.70;;;;;;;;;;5091569;28;20024;-80
2023/12/10 00:38:27;;;;;;;18.73;2.58;;;;;;;;;;5084734;28;20555;-80
2023/12/10 00:40:53;;;;;;;17.67;3.00;;;;;;;;;;5063207;28;20030;-79
2023/12/10 00:43:18;;;;;;;16.83;2.83;;;;;;;;;;5078406;28;20032;-79
2023/12/10 00:45:44;;;;;;;18.52;2.58;;;;;;;;;;5094821;28;20126;-80
2023/12/10 00:48:12;;;;;;;15.23;2.55;;;;;;;;;;5087874;28;20046;-79
2023/12/10 00:50:38;;;;;;;16.30;2.92;;;;;;;;;;5074102;28;20036;-79
2023/12/10 00:53:06;;;;;;;15.57;2.50;;;;;;;;;;5089576;28;20040;-80
2023/12/10 00:55:32;;;;;;;19.90;2.88;;;;;;;;;;5092774;28;20033;-79
2023/12/10 00:57:57;;;;;;;24.50;3.10;;;;;;;;;;5079189;28;20097;-79
2023/12/10 01:00:23;;;;;;;21.65;3.03;;;;;;;;;;5071793;28;20189;-80
2023/12/10 01:02:49;;;;;;;20.50;2.67;;;;;;;;;;5077881;28;20036;-79
2023/12/10 01:05:15;;;;;;;13.77;2.65;;;;;;;;;;5100824;27;20503;-79
2023/12/10 01:07:40;;;;;;;15.68;2.78;;;;;;;;;;5083202;28;20029;-79
2023/12/10 01:10:06;;;;;;;24.08;3.60;;;;;;;;;;5070031;28;20240;-79
2023/12/10 01:12:37;;;;;;;20.60;2.63;;;;;;;;;;5090312;28;20036;-79
2023/12/10 01:15:06;;;;;;;21.40;2.92;;;;;;;;;;5080017;28;20033;-79
2023/12/10 01:17:32;;;;;;;16.08;2.90;;;;;;;;;;5069036;28;20033;-79
2023/12/10 01:19:59;;;;;;;21.63;2.50;;;;;;;;;;5065433;28;20042;-79
2023/12/10 01:22:25;;;;;;;19.25;2.65;;;;;;;;;;5088944;28;20044;-79
2023/12/10 01:24:52;;;;;;;19.13;2.60;;;;;;;;;;5067705;28;20064;-79
2023/12/10 01:27:18;;;;;;;15.52;2.65;;;;;;;;;;5054033;28;20059;-79
2023/12/10 01:29:43;;;;;;;17.58;2.63;;;;;;;;;;5091723;28;20060;-79
2023/12/10 01:32:10;;;;;;;20.98;3.47;;;;;;;;;;5085755;28;20063;-79
2023/12/10 01:34:36;;;;;;;18.77;3.47;;;;;;;;;;5089650;28;20084;-79
2023/12/10 01:37:02;;;;;;;16.55;2.42;;;;;;;;;;5089097;28;20439;-79
2023/12/10 01:39:27;;;;;;;20.52;2.70;;;;;;;;;;5095530;28;20097;-79
2023/12/10 01:41:53;;;;;;;21.33;3.45;;;;;;;;;;5095700;28;20119;-79
2023/12/10 01:44:18;;;;;;;15.27;3.03;;;;;;;;;;5061409;28;20042;-80
2023/12/10 01:46:45;;;;;;;15.57;2.47;;;;;;;;;;5089305;28;20036;-80
2023/12/10 01:49:11;;;;;;;19.00;2.40;;;;;;;;;;5079747;28;20116;-85
2023/12/10 01:51:37;;;;;;;17.33;2.35;;;;;;;;;;5070235;28;20028;-85
2023/12/10 01:54:03;;;;;;;15.13;2.88;;;;;;;;;;5084613;28;20036;-85
2023/12/10 01:56:30;;;;;;;16.58;2.42;;;;;;;;;;5106390;27;20542;-85
2023/12/10 01:58:56;;;;;;;13.48;2.45;;;;;;;;;;5090665;28;20037;-85
2023/12/10 02:01:23;;;;;;;20.02;2.10;;;;;;;;;;5064079;28;20025;-85
2023/12/10 02:03:49;;;;;;;23.50;3.25;;;;;;;;;;5073787;28;20032;-85
2023/12/10 02:06:15;;;;;;;14.80;2.00;;;;;;;;;;5069927;28;20131;-85
2023/12/10 02:08:40;;;;;;;16.45;2.30;;;;;;;;;;5083841;28;20126;-85
2023/12/10 02:11:06;;;;;;;19.65;2.58;;;;;;;;;;5087717;28;20494;-85
2023/12/10 02:13:31;;;;;;;16.98;2.78;;;;;;;;;;5062069;28;20028;-85
2023/12/10 02:15:57;;;;;;;14.57;2.88;;;;;;;;;;5075022;28;20032;-85
2023/12/10 02:18:22;;;;;;;15.85;3.03;;;;;;;;;;5085294;28;20034;-85
2023/12/10 02:20:48;;;;;;;16.77;2.88;;;;;;;;;;5074697;28;20028;-85
2023/12/10 02:23:20;;;;;;;16.27;2.40;;;;;;;;;;5070845;28;20040;-86
2023/12/10 02:25:45;;;;;;;17.17;2.40;;;;;;;;;;5094921;28;20356;-85
2023/12/10 02:28:11;;;;;;;15.68;2.53;;;;;;;;;;5073318;28;20162;-85
2023/12/10 02:30:36;;;;;;;22.02;3.28;;;;;;;;;;5080750;28;20111;-85
2023/12/10 02:33:03;;;;;;;19.60;2.70;;;;;;;;;;5096365;28;20478;-85
2023/12/10 02:35:28;;;;;;;19.42;3.33;;;;;;;;;;5072252;28;20047;-85
2023/12/10 02:37:54;;;;;;;12.10;2.03;;;;;;;;;;5080987;28;20037;-84
2023/12/10 02:40:20;;;;;;;16.45;2.42;;;;;;;;;;5087410;28;20024;-85
2023/12/10 02:42:46;;;;;;;15.02;2.00;;;;;;;;;;5065486;28;20028;-85
2023/12/10 02:45:13;;;;;;;17.45;2.00;;;;;;;;;;5089159;28;20031;-84
2023/12/10 02:47:38;;;;;;;17.77;2.38;;;;;;;;;;5080920;28;20028;-86
2023/12/10 02:50:05;;;;;;;17.25;2.88;;;;;;;;;;5075845;28;20035;-85
2023/12/10 02:52:30;;;;;;;18.48;2.13;;;;;;;;;;5084647;28;20033;-84
2023/12/10 02:54:56;;;;;;;15.45;2.17;;;;;;;;;;5058599;28;20588;-86
2023/12/10 02:57:21;;;;;;;11.60;2.03;;;;;;;;;;5077268;28;20503;-79
2023/12/10 02:59:47;;;;;;;19.63;2.80;;;;;;;;;;5082403;28;20029;-79
2023/12/10 03:02:12;;;;;;;16.15;2.30;;;;;;;;;;5070150;28;20119;-80
2023/12/10 03:04:38;;;;;;;15.98;2.70;;;;;;;;;;5084471;28;20547;-79
2023/12/10 03:07:04;;;;;;;14.45;1.98;;;;;;;;;;5070259;28;20028;-80
2023/12/10 03:09:29;;;;;;;18.85;2.33;;;;;;;;;;5074868;28;20028;-80
2023/12/10 03:11:54;;;;;;;19.33;2.33;;;;;;;;;;5069985;28;20047;-80
2023/12/10 03:14:20;;;;;;;16.52;2.17;;;;;;;;;;5056127;28;20455;-79
2023/12/10 03:16:45;;;;;;;17.13;2.42;;;;;;;;;;5067645;28;20032;-79
2023/12/10 03:19:11;;;;;;;12.73;1.75;;;;;;;;;;5053112;28;20469;-79
2023/12/10 03:21:38;;;;;;;12.93;2.08;;;;;;;;;;5058083;28;20031;-80
2023/12/10 03:24:03;;;;;;;20.65;3.30;;;;;;;;;;5069004;28;20029;-79
2023/12/10 03:26:29;;;;;;;14.75;2.17;;;;;;;;;;5070495;28;20032;-79
2023/12/10 03:28:55;;;;;;;15.40;2.20;;;;;;;;;;5091389;28;20058;-79
2023/12/10 03:31:20;;;;;;;14.65;1.83;;;;;;;;;;5079437;28;20032;-80
2023/12/10 03:33:46;;;;;;;15.75;2.35;;;;;;;;;;5088636;28;20433;-80
2023/12/10 03:36:11;;;;;;;12.85;1.98;;;;;;;;;;5064019;28;20470;-80
2023/12/10 03:38:37;;;;;;;23.58;2.97;;;;;;;;;;5086196;28;20099;-87
2023/12/10 03:41:02;;;;;;;12.38;2.53;;;;;;;;;;5086266;28;20113;-86
2023/12/10 03:43:28;;;;;;;11.48;1.90;;;;;;;;;;5088343;28;20119;-87
2023/12/10 03:45:53;;;;;;;20.70;2.90;;;;;;;;;;5086691;28;20401;-86
2023/12/10 03:48:19;;;;;;;17.60;2.65;;;;;;;;;;5083667;28;20032;-87
2023/12/10 03:50:45;;;;;;;18.55;2.17;;;;;;;;;;5083342;28;20028;-87
2023/12/10 03:53:10;;;;;;;18.35;3.17;;;;;;;;;;5086227;28;20035;-87
2023/12/10 03:55:36;;;;;;;15.18;2.38;;;;;;;;;;5059177;28;20028;-85
2023/12/10 03:58:01;;;;;;;23.88;2.80;;;;;;;;;;5056437;28;20085;-87
2023/12/10 04:00:27;;;;;;;16.92;2.20;;;;;;;;;;5081972;28;20119;-87
2023/12/10 04:02:52;;;;;;;17.98;2.75;;;;;;;;;;5078137;28;20086;-87
2023/12/10 04:05:18;;;;;;;16.13;3.00;;;;;;;;;;5072997;28;20051;-86
2023/12/10 04:07:46;;;;;;;17.98;2.83;;;;;;;;;;5084411;28;20140;-86
2023/12/10 04:10:11;;;;;;;15.30;2.60;;;;;;;;;;5075983;28;20114;-87
2023/12/10 04:12:37;;;;;;;12.57;2.00;;;;;;;;;;5072432;28;20439;-86
2023/12/10 04:15:04;;;;;;;17.52;2.53;;;;;;;;;;5077824;28;20035;-87
2023/12/10 04:17:29;;;;;;;13.07;1.63;;;;;;;;;;5086341;28;20060;-80
2023/12/10 04:19:54;;;;;;;17.50;2.85;;;;;;;;;;5083799;28;20067;-80
2023/12/10 04:22:20;;;;;;;12.43;2.38;;;;;;;;;;5056933;28;20028;-79
2023/12/10 04:24:45;;;;;;;17.52;1.98;;;;;;;;;;5072670;28;20028;-81
2023/12/10 04:27:11;;;;;;;16.92;2.90;;;;;;;;;;5074026;28;20028;-80
2023/12/10 04:29:36;;;;;;;17.45;2.53;;;;;;;;;;5068190;28;20032;-80
2023/12/10 04:32:02;;;;;;;15.85;1.95;;;;;;;;;;5056825;28;20046;-79
2023/12/10 04:34:27;;;;;;;18.00;2.28;;;;;;;;;;5087052;28;20020;-79
2023/12/10 04:36:53;;;;;;;12.93;2.50;;;;;;;;;;5082411;28;20029;-80
2023/12/10 04:39:19;;;;;;;14.25;2.67;;;;;;;;;;5056424;28;20079;-79
2023/12/10 04:41:44;;;;;;;12.70;2.03;;;;;;;;;;5089641;28;20030;-79
2023/12/10 04:44:10;;;;;;;16.60;2.55;;;;;;;;;;5089083;28;20468;-79
2023/12/10 04:46:35;;;;;;;18.05;2.47;;;;;;;;;;5086132;28;20450;-79
2023/12/10 04:49:01;;;;;;;16.55;2.42;;;;;;;;;;5070603;28;20037;-86
2023/12/10 04:51:27;;;;;;;16.90;2.20;;;;;;;;;;5086234;28;20024;-86
2023/12/10 04:53:52;;;;;;;16.65;2.25;;;;;;;;;;5075060;28;20036;-85
2023/12/10 04:56:18;;;;;;;13.32;1.75;;;;;;;;;;5086530;28;20516;-86
2023/12/10 04:58:43;;;;;;;14.35;2.42;;;;;;;;;;5089954;28;20059;-86
2023/12/10 05:01:11;;;;;;;13.82;1.95;;;;;;;;;;5082138;28;20077;-85
2023/12/10 05:03:36;;;;;;;15.48;2.53;;;;;;;;;;5087748;28;20094;-86
2023/12/10 05:06:02;;;;;;;17.58;3.53;;;;;;;;;;5074061;28;20371;-85
2023/12/10 05:08:28;;;;;;;13.82;2.17;;;;;;;;;;5091379;28;20126;-85
2023/12/10 05:10:53;;;;;;;10.95;1.92;;;;;;;;;;5095893;28;20103;-86
2023/12/10 05:13:19;;;;;;;15.18;2.70;;;;;;;;;;5094756;28;20074;-86
2023/12/10 05:15:44;;;;;;;11.85;1.98;;;;;;;;;;5058314;28;20518;-86
2023/12/10 05:18:10;;;;;;;12.30;2.10;;;;;;;;;;5089837;28;20084;-86
2023/12/10 05:20:35;;;;;;;16.50;2.08;;;;;;;;;;5091084;28;20066;-86
2023/12/10 05:23:01;;;;;;;15.00;1.98;;;;;;;;;;5079328;28;20123;-86
2023/12/10 05:25:30;;;;;;;11.50;1.77;;;;;;;;;;5077281;28;20093;-85
2023/12/10 05:27:56;;;;;;;17.73;2.63;;;;;;;;;;5078926;28;20032;-79
2023/12/10 05:30:21;;;;;;;15.65;2.10;;;;;;;;;;5073322;28;20379;-78
2023/12/10 05:32:47;;;;;;;16.40;2.13;;;;;;;;;;5072311;28;20032;-79
2023/12/10 05:35:12;;;;;;;15.85;2.38;;;;;;;;;;5083810;28;20032;-79
2023/12/10 05:37:38;;;;;;;16.50;2.17;;;;;;;;;;5085975;28;20028;-79
2023/12/10 05:40:04;;;;;;;12.25;2.15;;;;;;;;;;5079544;28;20031;-78
2023/12/10 05:42:29;;;;;;;18.75;2.78;;;;;;;;;;5070895;28;20020;-79
2023/12/10 05:44:55;;;;;;;15.00;2.10;;;;;;;;;;5076262;28;20032;-79
2023/12/10 05:47:21;;;;;;;16.50;2.30;;;;;;;;;;5085650;28;20047;-79
2023/12/10 05:49:47;;;;;;;20.05;2.38;;;;;;;;;;5071543;28;20035;-79
2023/12/10 05:52:12;;;;;;;11.70;1.95;;;;;;;;;;5077192;28;20032;-79
2023/12/10 05:54:38;;;;;;;15.63;2.28;;;;;;;;;;5082418;28;20038;-79
2023/12/10 05:57:04;;;;;;;16.30;2.33;;;;;;;;;;5092668;28;20540;-85
2023/12/10 05:59:29;;;;;;;11.80;2.22;;;;;;;;;;5096958;28;20040;-86
2023/12/10 06:01:56;;;;;;;17.85;2.63;;;;;;;;;;5087936;28;20028;-86
2023/12/10 06:04:21;;;;;;;17.48;2.17;;;;;;;;;;5105724;27;20054;-85
2023/12/10 06:06:47;;;;;;;15.27;2.10;;;;;;;;;;5063559;28;20078;-85
2023/12/10 06:09:14;;;;;;;14.98;2.22;;;;;;;;;;5094102;28;20460;-85
2023/12/10 06:11:40;;;;;;;14.13;2.03;;;;;;;;;;5055353;28;20052;-84
2023/12/10 06:14:05;;;;;;;14.23;2.33;;;;;;;;;;5081876;28;20510;-86
2023/12/10 06:16:31;;;;;;;18.00;2.42;;;;;;;;;;5086758;28;20062;-85
2023/12/10 06:18:56;;;;;;;13.90;2.28;;;;;;;;;;5058949;28;20032;-86
2023/12/10 06:21:21;;;;;;;18.77;2.78;;;;;;;;;;5076707;28;20024;-85
2023/12/10 06:23:47;;;;;;;13.98;2.08;;;;;;;;;;5056926;28;20032;-85
2023/12/10 06:26:12;;;;;;;17.88;2.67;;;;;;;;;;5095659;28;20399;-85
2023/12/10 06:28:38;;;;;;;15.70;2.35;;;;;;;;;;5072743;28;20036;-86
2023/12/10 06:31:03;;;;;;;13.63;2.35;;;;;;;;;;5075020;28;20040;-85
2023/12/10 06:33:29;;;;;;;16.58;2.60;;;;;;;;;;5051846;28;20032;-84
2023/12/10 06:35:55;;;;;;;15.43;2.60;;;;;;;;;;5071725;28;20028;-85
2023/12/10 06:38:20;;;;;;;17.38;2.65;;;;;;;;;;5081057;28;20093;-79
2023/12/10 06:40:46;;;;;;;16.27;2.10;;;;;;;;;;5088104;28;20056;-79
2023/12/10 06:43:11;;;;;;;15.07;2.40;;;;;;;;;;5082410;28;20421;-79
2023/12/10 06:45:37;;;;;;;16.98;2.47;;;;;;;;;;5074979;28;20059;-79
2023/12/10 06:48:03;;;;;;;15.57;2.22;;;;;;;;;;5057664;28;20086;-79
2023/12/10 06:50:30;;;;;;;15.20;2.70;;;;;;;;;;5070930;28;20109;-79
2023/12/10 06:52:56;;;;;;;22.85;2.80;;;;;;;;;;5069337;28;20039;-79
2023/12/10 06:55:22;;;;;;;13.73;2.13;;;;;;;;;;5081515;28;20036;-79
2023/12/10 06:57:47;;;;;;;13.68;2.00;;;;;;;;;;5083379;28;20027;-79
2023/12/10 07:00:13;;;;;;;12.90;2.30;;;;;;;;;;5093119;28;20042;-79
2023/12/10 07:02:39;;;;;;;11.57;1.95;;;;;;;;;;5073378;28;20115;-79
2023/12/10 07:05:05;;;;;;;17.77;1.98;;;;;;;;;;5061497;28;20118;-79
2023/12/10 07:07:31;;;;;;;15.60;2.17;;;;;;;;;;5086048;28;20165;-85
2023/12/10 07:09:57;;;;;;;12.88;2.58;;;;;;;;;;5089690;28;20031;-84
2023/12/10 07:12:24;;;;;;;17.33;2.58;;;;;;;;;;5086422;28;20448;-85
2023/12/10 07:14:49;;;;;;;15.15;2.03;;;;;;;;;;5085511;28;20500;-85
2023/12/10 07:17:15;;;;;;;12.85;2.10;;;;;;;;;;5055400;28;20024;-86
2023/12/10 07:19:40;;;;;;;18.58;2.40;;;;;;;;;;5088565;28;20038;-84
2023/12/10 07:22:06;;;;;;;15.70;2.20;;;;;;;;;;5074768;28;20060;-85
2023/12/10 07:24:32;;;;;;;17.08;2.53;;;;;;;;;;5072580;28;20036;-84
2023/12/10 07:26:57;;;;;;;16.00;2.75;;;;;;;;;;5074862;28;20453;-85
2023/12/10 07:29:23;;;;;;;18.20;2.33;;;;;;;;;;5075285;28;20032;-84
2023/12/10 07:31:48;;;;;;;14.98;1.95;;;;;;;;;;5085220;28;20021;-85
2023/12/10 07:34:14;;;;;;;14.45;2.30;;;;;;;;;;5066836;28;20039;-85
2023/12/10 07:36:39;;;;;;;16.67;2.67;;;;;;;;;;5084555;28;20032;-84
2023/12/10 07:39:07;;;;;;;17.92;2.10;;;;;;;;;;5074061;28;20474;-85
2023/12/10 07:41:32;;;;;;;14.60;2.40;;;;;;;;;;5087994;28;20424;-84
2023/12/10 07:43:58;;;;;;;14.25;2.13;;;;;;;;;;5082699;28;20020;-85
2023/12/10 07:46:23;;;;;;;14.93;2.22;;;;;;;;;;5060033;28;20105;-85
2023/12/10 07:48:49;;;;;;;13.98;2.33;;;;;;;;;;5067354;28;20451;-79
2023/12/10 07:51:14;;;;;;;13.13;2.10;;;;;;;;;;5072711;28;20052;-79
2023/12/10 07:53:42;;;;;;;18.55;2.97;;;;;;;;;;5084650;28;20032;-79
2023/12/10 07:56:08;;;;;;;15.18;1.85;;;;;;;;;;5075095;28;20032;-79
2023/12/10 07:58:33;;;;;;;14.82;2.10;;;;;;;;;;5073906;28;20024;-79
2023/12/10 08:01:00;;;;;;;17.23;2.50;;;;;;;;;;5052480;28;20043;-79
2023/12/10 08:03:26;;;;;;;17.60;2.17;;;;;;;;;;5067460;28;20032;-79
2023/12/10 08:05:52;;;;;;;12.40;1.98;;;;;;;;;;5055516;28;20414;-79
2023/12/10 08:08:17;;;;;;;12.50;2.38;;;;;;;;;;5078175;28;20074;-79
2023/12/10 08:10:42;;;;;;;13.13;2.03;;;;;;;;;;5068680;28;20038;-79
2023/12/10 08:13:08;;;;;;;13.77;2.20;;;;;;;;;;5091898;28;20028;-79
2023/12/10 08:15:33;;;;;;;17.25;1.83;;;;;;;;;;5077421;28;20043;-79
2023/12/10 08:17:59;;;;;;;13.45;2.08;;;;;;;;;;5085495;28;20505;-79
2023/12/10 08:20:25;;;;;;;18.80;2.72;;;;;;;;;;5085155;28;20119;-79
2023/12/10 08:22:50;;;;;;;16.80;2.95;;;;;;;;;;5084201;28;20468;-79
2023/12/10 08:25:16;;;;;;;17.60;2.85;;;;;;;;;;5089962;28;20424;-79
2023/12/10 08:27:42;;;;;;;18.23;3.53;;;;;;;;;;5062251;28;20579;-79
2023/12/10 08:30:08;;;;;;;14.40;2.05;;;;;;;;;;5088089;28;20040;-79
2023/12/10 08:32:33;;;;;;;15.50;2.17;;;;;;;;;;5090793;28;20400;-79
2023/12/10 08:34:59;;;;;;;18.77;2.78;;;;;;;;;;5067259;28;20393;-79
2023/12/10 08:37:24;;;;;;;13.23;2.60;;;;;;;;;;5054786;28;20024;-79
2023/12/10 08:39:50;;;;;;;17.33;3.75;;;;;;;;;;5093243;28;20044;-79
2023/12/10 08:42:16;;;;;;;12.85;2.00;;;;;;;;;;5089574;28;20027;-79
2023/12/10 08:44:41;;;;;;;12.57;2.00;;;;;;;;;;5059512;28;20040;-79
2023/12/10 08:47:07;;;;;;;19.23;2.58;;;;;;;;;;5083828;28;20032;-79
2023/12/10 08:49:33;;;;;;;12.05;1.73;;;;;;;;;;5085082;28;20488;-79
2023/12/10 08:51:58;;;;;;;13.70;2.03;;;;;;;;;;5067089;28;20550;-79
2023/12/10 08:54:24;;;;;;;17.55;2.50;;;;;;;;;;5083799;28;20028;-79
2023/12/10 08:56:49;;;;;;;16.27;2.60;;;;;;;;;;5087827;28;20097;-85
2023/12/10 08:59:15;;;;;;;16.38;2.35;;;;;;;;;;5075656;28;20028;-85
2023/12/10 09:01:41;;;;;;;11.75;2.05;;;;;;;;;;5059764;28;20041;-85
2023/12/10 09:04:06;;;;;;;13.20;2.30;;;;;;;;;;5088138;28;20033;-85
2023/12/10 09:06:32;;;;;;;19.58;2.20;;;;;;;;;;5075484;28;20073;-84
2023/12/10 09:08:58;;;;;;;15.00;1.75;;;;;;;;;;5055022;28;20043;-84
2023/12/10 09:11:23;;;;;;;12.43;2.42;;;;;;;;;;5077689;28;20482;-85
2023/12/10 09:13:49;;;;;;;11.05;1.80;;;;;;;;;;5089226;28;20117;-85
2023/12/10 09:16:17;;;;;;;19.23;2.13;;;;;;;;;;5088131;28;20473;-84
2023/12/10 09:18:44;;;;;;;12.68;1.92;;;;;;;;;;5087456;28;20057;-85
2023/12/10 09:21:11;;;;;;;11.40;1.60;;;;;;;;;;5093157;28;20027;-85
2023/12/10 09:23:38;;;;;;;14.80;2.85;;;;;;;;;;5075654;28;20341;-85
2023/12/10 09:26:03;;;;;;;16.45;1.80;;;;;;;;;;5076962;28;20481;-84
2023/12/10 09:28:29;;;;;;;13.70;2.10;;;;;;;;;;5106819;27;20032;-85
2023/12/10 09:30:56;;;;;;;16.50;2.45;;;;;;;;;;5066523;28;20384;-85
2023/12/10 09:33:22;;;;;;;16.65;2.25;;;;;;;;;;5084475;28;20039;-85
2023/12/10 09:35:48;;;;;;;14.15;2.13;;;;;;;;;;5085123;28;20028;-85
2023/12/10 09:38:13;;;;;;;12.57;2.30;;;;;;;;;;5072340;28;20401;-84
2023/12/10 09:40:39;;;;;;;18.02;2.42;;;;;;;;;;5094787;28;20085;-85
2023/12/10 09:43:05;;;;;;;18.13;2.90;;;;;;;;;;5088294;28;20036;-84
2023/12/10 09:45:32;;;;;;;12.88;2.33;;;;;;;;;;5096380;28;20036;-85
2023/12/10 09:47:58;;;;;;;14.57;2.60;;;;;;;;;;5088022;28;20115;-85
2023/12/10 09:50:26;;;;;;;20.67;3.10;;;;;;;;;;5097386;28;20034;-85
2023/12/10 09:52:53;;;;;;;18.17;2.58;;;;;;;;;;5090739;28;20115;-85
2023/12/10 09:55:19;;;;;;;16.58;2.30;;;;;;;;;;5095741;28;20052;-85
2023/12/10 09:57:44;;;;;;;15.23;2.33;;;;;;;;;;5078544;28;20032;-85
2023/12/10 10:00:10;;;;;;;12.40;1.95;;;;;;;;;;5077774;28;20024;-85
2023/12/10 10:02:36;;;;;;;28.25;3.92;;;;;;;;;;5089066;28;20246;-85
2023/12/10 10:05:03;;;;;;;16.00;2.10;;;;;;;;;;5093737;28;20036;-85
2023/12/10 10:07:29;;;;;;;16.05;1.85;;;;;;;;;;5073717;28;20032;-85
2023/12/10 10:09:55;;;;;;;17.10;2.50;;;;;;;;;;5094205;27;20031;-85
2023/12/10 10:12:21;;;;;;;20.35;2.20;;;;;;;;;;5090908;28;20028;-84
2023/12/10 10:14:57;;;;;;;21.80;2.50;;;;;;;;;;5096194;28;20032;-85
2023/12/10 10:17:35;;;;;;;17.65;2.65;;;;;;;;;;5079688;28;20073;-85
2023/12/10 10:20:04;;;;;;;16.95;2.20;;;;;;;;;;5074839;28;20036;-85
2023/12/10 10:22:30;;;;;;;13.13;2.30;;;;;;;;;;5089536;28;20027;-85
2023/12/10 10:24:56;;;;;;;19.52;2.55;;;;;;;;;;5077959;28;20032;-84
2023/12/10 10:27:22;;;;;;;13.43;2.58;;;;;;;;;;5087561;28;20052;-84
2023/12/10 10:29:54;;;;;;;17.90;2.33;;;;;;;;;;5056820;28;20060;-85
2023/12/10 10:32:20;;;;;;;19.48;2.72;;;;;;;;;;5074048;28;20062;-85
2023/12/10 10:34:46;;;;;;;14.43;2.20;;;;;;;;;;5087648;28;20023;-85
2023/12/10 10:37:13;;;;;;;13.05;2.58;;;;;;;;;;5089294;28;20028;-83
2023/12/10 10:39:40;;;;;;;20.17;2.53;;;;;;;;;;5086678;28;20027;-85
2023/12/10 10:42:08;;;;;;;14.52;2.38;;;;;;;;;;5082740;28;20020;-84
2023/12/10 10:44:38;;;;;;;15.38;2.40;;;;;;;;;;5056202;28;20047;-84
2023/12/10 10:47:07;;;;;;;16.27;2.70;;;;;;;;;;5095022;28;20052;-85
2023/12/10 10:49:36;;;;;;;13.65;2.20;;;;;;;;;;5096257;28;20119;-85
2023/12/10 10:52:05;;;;;;;15.27;2.45;;;;;;;;;;5093683;28;20027;-85
2023/12/10 10:54:33;;;;;;;17.10;2.65;;;;;;;;;;5083017;28;20031;-85
2023/12/10 10:56:58;;;;;;;16.38;2.42;;;;;;;;;;5083095;28;20025;-83
2023/12/10 10:59:36;;;;;;;14.93;2.47;;;;;;;;;;5081023;28;20943;-90
2023/12/10 11:02:07;;;;;;;17.67;2.78;;;;;;;;;;5083289;28;20508;-84
2023/12/10 11:04:38;;;;;;;17.23;2.47;;;;;;;;;;5088792;28;20099;-84
2023/12/10 11:07:05;;;;;;;15.80;2.53;;;;;;;;;;5088256;28;20154;-84
2023/12/10 11:09:31;;;;;;;15.35;2.63;;;;;;;;;;5084317;28;20031;-85
2023/12/10 11:11:59;;;;;;;14.40;2.03;;;;;;;;;;5090586;28;20453;-85
2023/12/10 11:14:26;;;;;;;15.70;2.67;;;;;;;;;;5084059;28;20043;-85
2023/12/10 11:17:05;;;;;;;16.95;2.53;;;;;;;;;;5079296;28;20039;-80
2023/12/10 11:19:32;;;;;;;17.33;2.15;;;;;;;;;;5079922;28;20035;-85
2023/12/10 11:21:59;;;;;;;12.70;1.70;;;;;;;;;;5072849;28;20024;-85
2023/12/10 11:24:24;;;;;;;13.02;1.90;;;;;;;;;;5079902;28;20053;-85
2023/12/10 11:26:50;;;;;;;11.95;1.73;;;;;;;;;;5078514;28;20131;-85
2023/12/10 11:29:16;;;;;;;15.18;1.73;;;;;;;;;;5074725;28;20028;-85
2023/12/10 11:31:46;;;;;;;9.43;1.40;;;;;;;;;;5073952;28;20031;-85
2023/12/10 11:34:11;;;;;;;12.63;1.70;;;;;;;;;;5084665;28;20305;-85
2023/12/10 11:36:37;;;;;;;8.50;1.67;;;;;;;;;;5077301;28;20111;-84
2023/12/10 11:39:03;;;;;;;15.75;1.83;;;;;;;;;;5066025;28;20089;-84
2023/12/10 11:41:29;;;;;;;13.63;2.10;;;;;;;;;;5076600;28;20032;-85
2023/12/10 11:43:54;;;;;;;11.20;2.00;;;;;;;;;;5080043;28;20429;-85
2023/12/10 11:46:21;;;;;;;10.27;2.03;;;;;;;;;;5075752;28;20035;-84
2023/12/10 11:48:47;;;;;;;14.98;2.13;;;;;;;;;;5089516;28;20043;-85
2023/12/10 11:51:12;;;;;;;13.40;1.60;;;;;;;;;;5092196;28;20785;-85
2023/12/10 11:53:38;;;;;;;14.57;1.75;;;;;;;;;;5076864;28;20035;-86
2023/12/10 11:56:04;;;;;;;13.40;2.30;;;;;;;;;;5082324;28;20090;-85
2023/12/10 11:58:32;;;;;;;11.48;1.35;;;;;;;;;;5090885;28;20043;-84
2023/12/10 12:00:59;;;;;;;12.82;1.67;;;;;;;;;;5076569;28;20485;-85
2023/12/10 12:03:25;;;;;;;11.30;1.60;;;;;;;;;;5078059;28;20065;-85
2023/12/10 12:05:55;;;;;;;13.70;1.67;;;;;;;;;;5090076;27;20062;-85
2023/12/10 12:08:27;;;;;;;12.15;1.75;;;;;;;;;;5081781;28;20027;-85
2023/12/10 12:10:52;;;;;;;10.68;1.52;;;;;;;;;;5084468;28;20390;-86
2023/12/10 12:13:18;;;;;;;14.93;2.25;;;;;;;;;;5081139;28;20038;-85
2023/12/10 12:15:47;;;;;;;12.35;1.98;;;;;;;;;;5079529;28;20450;-85
2023/12/10 12:18:14;;;;;;;16.65;2.33;;;;;;;;;;5065440;28;20115;-85
2023/12/10 12:20:39;;;;;;;10.30;1.70;;;;;;;;;;5087768;28;20039;-85
2023/12/10 12:23:05;;;;;;;15.85;2.20;;;;;;;;;;5087605;28;20428;-86
2023/12/10 12:25:38;;;;;;;15.65;2.05;;;;;;;;;;5088051;28;20028;-85
2023/12/10 12:28:07;;;;;;;13.32;2.17;;;;;;;;;;5079559;28;20032;-80
2023/12/10 12:30:37;;;;;;;18.30;2.38;;;;;;;;;;5068519;28;20047;-80
2023/12/10 12:33:05;;;;;;;15.32;2.30;;;;;;;;;;5081486;28;20043;-80
2023/12/10 12:35:32;;;;;;;22.50;3.05;;;;;;;;;;5067861;28;20035;-81
2023/12/10 12:37:58;;;;;;;15.65;2.38;;;;;;;;;;5079740;28;20063;-80
2023/12/10 12:40:23;;;;;;;10.57;2.08;;;;;;;;;;5089670;28;20055;-80
2023/12/10 12:42:50;;;;;;;17.73;3.10;;;;;;;;;;5083681;28;20460;-80
2023/12/10 12:45:17;;;;;;;17.73;2.13;;;;;;;;;;5077529;28;20301;-80
2023/12/10 12:47:43;;;;;;;12.60;2.00;;;;;;;;;;5072008;28;20063;-79
2023/12/10 12:50:11;;;;;;;16.00;2.47;;;;;;;;;;5077847;28;20094;-80
2023/12/10 12:52:36;;;;;;;13.73;2.58;;;;;;;;;;5084287;28;20451;-81
2023/12/10 12:55:03;;;;;;;13.02;2.25;;;;;;;;;;5076649;28;20229;-80
2023/12/10 12:57:28;;;;;;;16.85;2.60;;;;;;;;;;5077836;28;20032;-88
2023/12/10 12:59:55;;;;;;;17.00;2.72;;;;;;;;;;5067521;28;20054;-86
2023/12/10 13:02:21;;;;;;;13.30;2.20;;;;;;;;;;5083583;28;20069;-86
2023/12/10 13:04:46;;;;;;;18.73;3.15;;;;;;;;;;5093802;27;20039;-86
2023/12/10 13:07:14;;;;;;;19.80;2.97;;;;;;;;;;5065669;28;20028;-85
2023/12/10 13:09:39;;;;;;;19.33;3.67;;;;;;;;;;5087369;28;20055;-86
2023/12/10 13:12:05;;;;;;;18.23;3.20;;;;;;;;;;5066112;28;20481;-86
2023/12/10 13:14:31;;;;;;;17.80;2.63;;;;;;;;;;5063962;28;20042;-85
2023/12/10 13:16:56;;;;;;;18.77;3.05;;;;;;;;;;5066459;28;20028;-89
2023/12/10 13:19:22;;;;;;;18.85;3.00;;;;;;;;;;5068935;28;20032;-89
2023/12/10 13:21:51;;;;;;;18.02;3.25;;;;;;;;;;5050413;28;20040;-86
2023/12/10 13:24:17;;;;;;;22.23;3.90;;;;;;;;;;5062146;28;20028;-85
2023/12/10 13:26:42;;;;;;;20.95;3.88;;;;;;;;;;5078697;28;20043;-85
2023/12/10 13:29:08;;;;;;;17.75;3.20;;;;;;;;;;5080531;28;20028;-85
2023/12/10 13:31:35;;;;;;;26.38;3.60;;;;;;;;;;5088296;28;20608;-85
2023/12/10 13:34:00;;;;;;;22.00;3.83;;;;;;;;;;5080176;28;20132;-85
2023/12/10 13:36:26;;;;;;;22.70;3.45;;;;;;;;;;5076485;28;20086;-85
2023/12/10 13:38:51;;;;;;;22.70;3.55;;;;;;;;;;5069106;28;20039;-80
2023/12/10 13:41:19;;;;;;;21.83;3.30;;;;;;;;;;5085799;28;20535;-79
2023/12/10 13:43:45;;;;;;;28.77;3.78;;;;;;;;;;5058474;28;20119;-79
2023/12/10 13:46:10;;;;;;;27.60;3.88;;;;;;;;;;5082447;28;20118;-79
2023/12/10 13:48:36;;;;;;;27.90;4.00;;;;;;;;;;5047199;28;20045;-79
2023/12/10 13:51:04;;;;;;;22.25;3.65;;;;;;;;;;5051777;28;20871;-80
2023/12/10 13:53:30;;;;;;;23.05;4.47;;;;;;;;;;5075027;28;20042;-80
2023/12/10 13:55:59;;;;;;;21.63;3.78;;;;;;;;;;5082658;28;20032;-79
2023/12/10 13:58:25;;;;;;;24.55;3.53;;;;;;;;;;5076563;28;20023;-79
2023/12/10 14:00:50;;;;;;;28.38;3.42;;;;;;;;;;5079597;28;20042;-80
2023/12/10 14:03:15;;;;;;;22.65;3.70;;;;;;;;;;5080650;28;20038;-80
2023/12/10 14:05:42;;;;;;;27.58;3.97;;;;;;;;;;5062480;28;20032;-81
2023/12/10 14:08:08;;;;;;;28.15;3.97;;;;;;;;;;5060042;28;20066;-84
2023/12/10 14:10:33;;;;;;;21.20;3.33;;;;;;;;;;5064786;28;20115;-85
2023/12/10 14:12:59;;;;;;;23.75;3.70;;;;;;;;;;5050009;28;20086;-85
2023/12/10 14:15:24;;;;;;;21.05;4.00;;;;;;;;;;5083459;28;20028;-85
2023/12/10 14:17:50;;;;;;;22.30;4.28;;;;;;;;;;5102824;27;20044;-85
2023/12/10 14:20:15;;;;;;;30.17;4.38;;;;;;;;;;5050769;28;20034;-85
2023/12/10 14:22:41;;;;;;;21.98;4.53;;;;;;;;;;5083624;28;20378;-84
2023/12/10 14:25:08;;;;;;;16.50;3.08;;;;;;;;;;5065642;28;20041;-84